sensor_id;sensor_type;location;lat;lon;timestamp;temperature;humidity
16301;DHT22;8258;51.020;4.248;2023-05-16T00:00:59;8.00;99.90
16301;DHT22;8258;51.020;4.248;2023-05-16T00:03:27;8.00;99.90
16301;DHT22;8258;51.020;4.248;2023-05-16T00:05:55;8.00;99.90
16301;DHT22;8258;51.020;4.248;2023-05-16T00:08:23;8.00;99.90
16301;DHT22;8258;51.020;4.248;2023-05-16T00:10:51;8.00;99.90
16301;DHT22;8258;51.020;4.248;2023-05-16T00:13:18;7.90;99.90
16301;DHT22;8258;51.020;4.248;2023-05-16T00:15:46;7.80;99.90
16301;DHT22;8258;51.020;4.248;2023-05-16T00:18:14;7.80;99.90
16301;DHT22;8258;51.020;4.248;2023-05-16T00:20:41;7.80;99.90
16301;DHT22;8258;51.020;4.248;2023-05-16T00:23:08;7.70;99.90
16301;DHT22;8258;51.020;4.248;2023-05-16T00:25:36;7.60;99.90
16301;DHT22;8258;51.020;4.248;2023-05-16T00:28:03;7.60;99.90
16301;DHT22;8258;51.020;4.248;2023-05-16T00:30:30;7.60;99.90
16301;DHT22;8258;51.020;4.248;2023-05-16T00:32:57;7.60;99.90
16301;DHT22;8258;51.020;4.248;2023-05-16T00:35:24;7.50;99.90
16301;DHT22;8258;51.020;4.248;2023-05-16T00:37:51;7.50;99.90
16301;DHT22;8258;51.020;4.248;2023-05-16T00:40:19;7.50;99.90
16301;DHT22;8258;51.020;4.248;2023-05-16T00:42:47;7.50;99.90
16301;DHT22;8258;51.020;4.248;2023-05-16T00:45:14;7.50;99.90
16301;DHT22;8258;51.020;4.248;2023-05-16T00:47:41;7.50;99.90
16301;DHT22;8258;51.020;4.248;2023-05-16T00:50:09;7.50;99.90
16301;DHT22;8258;51.020;4.248;2023-05-16T00:52:36;7.50;99.90
16301;DHT22;8258;51.020;4.248;2023-05-16T00:55:04;7.40;99.90
16301;DHT22;8258;51.020;4.248;2023-05-16T00:57:31;7.40;99.90
16301;DHT22;8258;51.020;4.248;2023-05-16T01:00:00;7.40;99.90
16301;DHT22;8258;51.020;4.248;2023-05-16T01:02:27;7.30;99.90
16301;DHT22;8258;51.020;4.248;2023-05-16T01:04:55;7.30;99.90
16301;DHT22;8258;51.020;4.248;2023-05-16T01:07:22;7.20;99.90
16301;DHT22;8258;51.020;4.248;2023-05-16T01:09:49;7.20;99.90
16301;DHT22;8258;51.020;4.248;2023-05-16T01:12:22;7.20;99.90
16301;DHT22;8258;51.020;4.248;2023-05-16T01:14:55;7.20;99.90
16301;DHT22;8258;51.020;4.248;2023-05-16T01:17:28;7.20;99.90
16301;DHT22;8258;51.020;4.248;2023-05-16T01:20:03;7.20;99.90
16301;DHT22;8258;51.020;4.248;2023-05-16T01:22:45;7.10;99.90
16301;DHT22;8258;51.020;4.248;2023-05-16T01:25:25;7.10;99.90
16301;DHT22;8258;51.020;4.248;2023-05-16T01:27:56;7.10;99.90
16301;DHT22;8258;51.020;4.248;2023-05-16T01:30:24;7.10;99.90
16301;DHT22;8258;51.020;4.248;2023-05-16T01:32:51;7.00;99.90
16301;DHT22;8258;51.020;4.248;2023-05-16T01:35:18;6.90;99.90
16301;DHT22;8258;51.020;4.248;2023-05-16T01:37:51;6.90;99.90
16301;DHT22;8258;51.020;4.248;2023-05-16T01:40:28;6.80;99.90
16301;DHT22;8258;51.020;4.248;2023-05-16T01:42:59;6.80;99.90
16301;DHT22;8258;51.020;4.248;2023-05-16T01:45:31;6.70;99.90
16301;DHT22;8258;51.020;4.248;2023-05-16T01:48:05;6.70;99.90
16301;DHT22;8258;51.020;4.248;2023-05-16T01:50:40;6.70;99.90
16301;DHT22;8258;51.020;4.248;2023-05-16T01:53:13;6.70;99.90
16301;DHT22;8258;51.020;4.248;2023-05-16T01:55:44;6.70;99.90
16301;DHT22;8258;51.020;4.248;2023-05-16T01:58:14;6.70;99.90
16301;DHT22;8258;51.020;4.248;2023-05-16T02:00:41;6.70;99.90
16301;DHT22;8258;51.020;4.248;2023-05-16T02:03:09;6.70;99.90
16301;DHT22;8258;51.020;4.248;2023-05-16T02:05:36;6.70;99.90
16301;DHT22;8258;51.020;4.248;2023-05-16T02:08:03;6.60;99.90
16301;DHT22;8258;51.020;4.248;2023-05-16T02:10:30;6.50;99.90
16301;DHT22;8258;51.020;4.248;2023-05-16T02:12:57;6.50;99.90
16301;DHT22;8258;51.020;4.248;2023-05-16T02:15:25;6.40;99.90
16301;DHT22;8258;51.020;4.248;2023-05-16T02:17:53;6.40;99.90
16301;DHT22;8258;51.020;4.248;2023-05-16T02:20:20;6.30;99.90
16301;DHT22;8258;51.020;4.248;2023-05-16T02:22:47;6.30;99.90
16301;DHT22;8258;51.020;4.248;2023-05-16T02:25:14;6.30;99.90
16301;DHT22;8258;51.020;4.248;2023-05-16T02:27:41;6.20;99.90
16301;DHT22;8258;51.020;4.248;2023-05-16T02:30:09;6.10;99.90
16301;DHT22;8258;51.020;4.248;2023-05-16T02:32:38;6.10;99.90
16301;DHT22;8258;51.020;4.248;2023-05-16T02:35:06;6.10;99.90
16301;DHT22;8258;51.020;4.248;2023-05-16T02:37:33;6.20;99.90
16301;DHT22;8258;51.020;4.248;2023-05-16T02:40:00;6.20;99.90
16301;DHT22;8258;51.020;4.248;2023-05-16T02:42:27;6.30;99.90
16301;DHT22;8258;51.020;4.248;2023-05-16T02:44:55;6.30;99.90
16301;DHT22;8258;51.020;4.248;2023-05-16T02:47:22;6.20;99.90
16301;DHT22;8258;51.020;4.248;2023-05-16T02:49:50;6.20;99.90
16301;DHT22;8258;51.020;4.248;2023-05-16T02:52:17;6.20;99.90
16301;DHT22;8258;51.020;4.248;2023-05-16T02:54:44;6.20;99.90
16301;DHT22;8258;51.020;4.248;2023-05-16T02:57:11;6.20;99.90
16301;DHT22;8258;51.020;4.248;2023-05-16T02:59:38;6.20;99.90
16301;DHT22;8258;51.020;4.248;2023-05-16T03:02:05;6.20;99.90
16301;DHT22;8258;51.020;4.248;2023-05-16T03:04:32;6.20;99.90
16301;DHT22;8258;51.020;4.248;2023-05-16T03:07:01;6.10;99.90
16301;DHT22;8258;51.020;4.248;2023-05-16T03:09:28;6.10;99.90
16301;DHT22;8258;51.020;4.248;2023-05-16T03:11:54;6.00;99.90
16301;DHT22;8258;51.020;4.248;2023-05-16T03:14:21;6.00;99.90
16301;DHT22;8258;51.020;4.248;2023-05-16T03:16:48;6.00;99.90
16301;DHT22;8258;51.020;4.248;2023-05-16T03:19:16;6.00;99.90
16301;DHT22;8258;51.020;4.248;2023-05-16T03:21:43;6.00;99.90
16301;DHT22;8258;51.020;4.248;2023-05-16T03:24:11;6.00;99.90
16301;DHT22;8258;51.020;4.248;2023-05-16T03:26:38;5.90;99.90
16301;DHT22;8258;51.020;4.248;2023-05-16T03:29:05;5.80;99.90
16301;DHT22;8258;51.020;4.248;2023-05-16T03:31:32;5.80;99.90
16301;DHT22;8258;51.020;4.248;2023-05-16T03:33:59;5.80;99.90
16301;DHT22;8258;51.020;4.248;2023-05-16T03:36:26;5.90;99.90
16301;DHT22;8258;51.020;4.248;2023-05-16T03:38:53;5.80;99.90
16301;DHT22;8258;51.020;4.248;2023-05-16T03:41:21;5.80;99.90
16301;DHT22;8258;51.020;4.248;2023-05-16T03:43:48;5.80;99.90
16301;DHT22;8258;51.020;4.248;2023-05-16T03:46:15;5.90;99.90
16301;DHT22;8258;51.020;4.248;2023-05-16T03:48:42;5.80;99.90
16301;DHT22;8258;51.020;4.248;2023-05-16T03:51:09;5.80;99.90
16301;DHT22;8258;51.020;4.248;2023-05-16T03:53:36;5.90;99.90
16301;DHT22;8258;51.020;4.248;2023-05-16T03:56:04;5.90;99.90
16301;DHT22;8258;51.020;4.248;2023-05-16T03:58:32;5.90;99.90
16301;DHT22;8258;51.020;4.248;2023-05-16T04:00:59;5.90;99.90
16301;DHT22;8258;51.020;4.248;2023-05-16T04:03:26;5.90;99.90
16301;DHT22;8258;51.020;4.248;2023-05-16T04:05:54;5.90;99.90
16301;DHT22;8258;51.020;4.248;2023-05-16T04:08:21;5.90;99.90
16301;DHT22;8258;51.020;4.248;2023-05-16T04:10:48;5.90;99.90
16301;DHT22;8258;51.020;4.248;2023-05-16T04:13:15;5.90;99.90
16301;DHT22;8258;51.020;4.248;2023-05-16T04:15:43;5.90;99.90
16301;DHT22;8258;51.020;4.248;2023-05-16T04:18:11;5.90;99.90
16301;DHT22;8258;51.020;4.248;2023-05-16T04:20:38;6.00;99.90
16301;DHT22;8258;51.020;4.248;2023-05-16T04:23:05;6.00;99.90
16301;DHT22;8258;51.020;4.248;2023-05-16T04:25:33;6.00;99.90
16301;DHT22;8258;51.020;4.248;2023-05-16T04:28:00;6.00;99.90
16301;DHT22;8258;51.020;4.248;2023-05-16T04:30:27;6.00;99.90
16301;DHT22;8258;51.020;4.248;2023-05-16T04:32:55;6.00;99.90
16301;DHT22;8258;51.020;4.248;2023-05-16T04:35:23;6.10;99.90
16301;DHT22;8258;51.020;4.248;2023-05-16T04:37:51;6.10;99.90
16301;DHT22;8258;51.020;4.248;2023-05-16T04:40:18;6.10;99.90
16301;DHT22;8258;51.020;4.248;2023-05-16T04:42:45;6.20;99.90
16301;DHT22;8258;51.020;4.248;2023-05-16T04:45:12;6.20;99.90
16301;DHT22;8258;51.020;4.248;2023-05-16T04:47:39;6.30;99.90
16301;DHT22;8258;51.020;4.248;2023-05-16T04:50:09;6.30;99.90
16301;DHT22;8258;51.020;4.248;2023-05-16T04:52:36;6.40;99.90
16301;DHT22;8258;51.020;4.248;2023-05-16T04:55:04;6.50;99.90
16301;DHT22;8258;51.020;4.248;2023-05-16T04:57:31;6.50;99.90
16301;DHT22;8258;51.020;4.248;2023-05-16T04:59:58;6.50;99.90
16301;DHT22;8258;51.020;4.248;2023-05-16T05:02:25;6.60;99.90
16301;DHT22;8258;51.020;4.248;2023-05-16T05:04:52;6.70;99.90
16301;DHT22;8258;51.020;4.248;2023-05-16T05:07:20;6.70;99.90
16301;DHT22;8258;51.020;4.248;2023-05-16T05:09:47;6.70;99.90
16301;DHT22;8258;51.020;4.248;2023-05-16T05:12:15;6.80;99.90
16301;DHT22;8258;51.020;4.248;2023-05-16T05:14:42;6.90;99.90
16301;DHT22;8258;51.020;4.248;2023-05-16T05:17:09;7.00;99.90
16301;DHT22;8258;51.020;4.248;2023-05-16T05:19:36;7.10;99.90
16301;DHT22;8258;51.020;4.248;2023-05-16T05:22:03;7.20;99.90
16301;DHT22;8258;51.020;4.248;2023-05-16T05:24:31;7.30;99.90
16301;DHT22;8258;51.020;4.248;2023-05-16T05:26:58;7.40;99.90
16301;DHT22;8258;51.020;4.248;2023-05-16T05:29:26;7.50;99.90
16301;DHT22;8258;51.020;4.248;2023-05-16T05:31:53;7.60;99.90
16301;DHT22;8258;51.020;4.248;2023-05-16T05:34:20;7.70;99.90
16301;DHT22;8258;51.020;4.248;2023-05-16T05:36:47;7.80;99.90
16301;DHT22;8258;51.020;4.248;2023-05-16T05:39:14;7.90;99.90
16301;DHT22;8258;51.020;4.248;2023-05-16T05:41:42;8.00;99.90
16301;DHT22;8258;51.020;4.248;2023-05-16T05:44:09;8.10;99.90
16301;DHT22;8258;51.020;4.248;2023-05-16T05:46:36;8.30;99.90
16301;DHT22;8258;51.020;4.248;2023-05-16T05:49:03;8.40;99.90
16301;DHT22;8258;51.020;4.248;2023-05-16T05:51:30;8.50;99.90
16301;DHT22;8258;51.020;4.248;2023-05-16T05:53:57;8.70;99.90
16301;DHT22;8258;51.020;4.248;2023-05-16T05:56:24;8.80;99.90
16301;DHT22;8258;51.020;4.248;2023-05-16T05:58:53;9.00;99.90
16301;DHT22;8258;51.020;4.248;2023-05-16T06:01:20;9.10;99.90
16301;DHT22;8258;51.020;4.248;2023-05-16T06:03:47;9.20;99.90
16301;DHT22;8258;51.020;4.248;2023-05-16T06:06:14;9.40;99.90
16301;DHT22;8258;51.020;4.248;2023-05-16T06:08:41;9.40;99.90
16301;DHT22;8258;51.020;4.248;2023-05-16T06:11:08;9.60;99.90
16301;DHT22;8258;51.020;4.248;2023-05-16T06:13:35;9.60;99.90
16301;DHT22;8258;51.020;4.248;2023-05-16T06:16:04;9.80;99.90
16301;DHT22;8258;51.020;4.248;2023-05-16T06:18:32;10.00;99.90
16301;DHT22;8258;51.020;4.248;2023-05-16T06:20:59;10.10;99.90
16301;DHT22;8258;51.020;4.248;2023-05-16T06:23:26;10.30;99.90
16301;DHT22;8258;51.020;4.248;2023-05-16T06:25:52;10.30;99.90
16301;DHT22;8258;51.020;4.248;2023-05-16T06:28:19;10.30;99.90
16301;DHT22;8258;51.020;4.248;2023-05-16T06:30:46;10.50;99.90
16301;DHT22;8258;51.020;4.248;2023-05-16T06:33:17;10.50;99.90
16301;DHT22;8258;51.020;4.248;2023-05-16T06:35:44;10.60;99.90
16301;DHT22;8258;51.020;4.248;2023-05-16T06:38:13;10.80;99.90
16301;DHT22;8258;51.020;4.248;2023-05-16T06:40:40;11.00;99.90
16301;DHT22;8258;51.020;4.248;2023-05-16T06:43:07;11.10;99.90
16301;DHT22;8258;51.020;4.248;2023-05-16T06:45:34;11.20;99.90
16301;DHT22;8258;51.020;4.248;2023-05-16T06:48:00;11.00;99.90
16301;DHT22;8258;51.020;4.248;2023-05-16T06:50:29;11.00;99.90
16301;DHT22;8258;51.020;4.248;2023-05-16T06:52:56;11.10;99.90
16301;DHT22;8258;51.020;4.248;2023-05-16T06:55:23;11.30;99.90
16301;DHT22;8258;51.020;4.248;2023-05-16T06:57:50;11.50;99.90
16301;DHT22;8258;51.020;4.248;2023-05-16T07:00:18;11.70;99.90
16301;DHT22;8258;51.020;4.248;2023-05-16T07:02:45;12.20;99.90
16301;DHT22;8258;51.020;4.248;2023-05-16T07:05:12;13.20;99.90
16301;DHT22;8258;51.020;4.248;2023-05-16T07:07:40;13.80;99.90
16301;DHT22;8258;51.020;4.248;2023-05-16T07:10:07;14.30;99.90
16301;DHT22;8258;51.020;4.248;2023-05-16T07:12:35;15.40;99.90
16301;DHT22;8258;51.020;4.248;2023-05-16T07:15:03;16.20;99.90
16301;DHT22;8258;51.020;4.248;2023-05-16T07:17:30;17.30;99.90
16301;DHT22;8258;51.020;4.248;2023-05-16T07:19:57;18.00;99.90
16301;DHT22;8258;51.020;4.248;2023-05-16T07:22:24;18.40;99.90
16301;DHT22;8258;51.020;4.248;2023-05-16T07:24:52;18.60;99.90
16301;DHT22;8258;51.020;4.248;2023-05-16T07:27:21;19.00;99.90
16301;DHT22;8258;51.020;4.248;2023-05-16T07:29:48;19.50;99.90
16301;DHT22;8258;51.020;4.248;2023-05-16T07:32:15;19.90;99.90
16301;DHT22;8258;51.020;4.248;2023-05-16T07:34:42;20.30;99.90
16301;DHT22;8258;51.020;4.248;2023-05-16T07:37:09;18.70;99.90
16301;DHT22;8258;51.020;4.248;2023-05-16T07:39:37;16.40;99.90
16301;DHT22;8258;51.020;4.248;2023-05-16T07:42:06;15.10;99.90
16301;DHT22;8258;51.020;4.248;2023-05-16T07:44:33;14.50;99.90
16301;DHT22;8258;51.020;4.248;2023-05-16T07:47:00;13.50;99.90
16301;DHT22;8258;51.020;4.248;2023-05-16T07:49:27;13.00;99.90
16301;DHT22;8258;51.020;4.248;2023-05-16T07:51:54;12.60;99.90
16301;DHT22;8258;51.020;4.248;2023-05-16T07:54:21;12.50;99.90
16301;DHT22;8258;51.020;4.248;2023-05-16T07:56:48;12.40;99.90
16301;DHT22;8258;51.020;4.248;2023-05-16T07:59:16;12.40;99.90
16301;DHT22;8258;51.020;4.248;2023-05-16T08:01:43;13.70;99.90
16301;DHT22;8258;51.020;4.248;2023-05-16T08:04:10;15.00;99.90
16301;DHT22;8258;51.020;4.248;2023-05-16T08:25:32;19.90;98.80
16301;DHT22;8258;51.020;4.248;2023-05-16T08:28:00;20.20;97.70
16301;DHT22;8258;51.020;4.248;2023-05-16T08:30:27;20.50;96.70
16301;DHT22;8258;51.020;4.248;2023-05-16T08:32:54;20.60;97.20
16301;DHT22;8258;51.020;4.248;2023-05-16T08:35:21;20.80;94.30
16301;DHT22;8258;51.020;4.248;2023-05-16T08:37:48;20.20;95.40
16301;DHT22;8258;51.020;4.248;2023-05-16T08:40:15;20.30;95.20
16301;DHT22;8258;51.020;4.248;2023-05-16T09:16:23;20.50;91.10
16301;DHT22;8258;51.020;4.248;2023-05-16T09:18:53;20.30;90.70
16301;DHT22;8258;51.020;4.248;2023-05-16T09:21:21;19.40;92.30
16301;DHT22;8258;51.020;4.248;2023-05-16T09:23:49;19.60;91.90
16301;DHT22;8258;51.020;4.248;2023-05-16T09:26:17;21.30;90.60
16301;DHT22;8258;51.020;4.248;2023-05-16T09:28:44;22.60;86.10
16301;DHT22;8258;51.020;4.248;2023-05-16T09:31:23;23.20;81.40
16301;DHT22;8258;51.020;4.248;2023-05-16T09:33:51;22.80;81.30
16301;DHT22;8258;51.020;4.248;2023-05-16T09:36:18;21.40;79.70
16301;DHT22;8258;51.020;4.248;2023-05-16T09:38:45;20.90;84.90
16301;DHT22;8258;51.020;4.248;2023-05-16T09:41:12;21.60;80.90
16301;DHT22;8258;51.020;4.248;2023-05-16T09:43:40;21.30;82.10
16301;DHT22;8258;51.020;4.248;2023-05-16T09:46:10;21.40;79.80
16301;DHT22;8258;51.020;4.248;2023-05-16T09:48:44;22.00;77.80
16301;DHT22;8258;51.020;4.248;2023-05-16T09:51:11;22.50;78.40
16301;DHT22;8258;51.020;4.248;2023-05-16T09:53:39;22.50;75.00
16301;DHT22;8258;51.020;4.248;2023-05-16T09:56:09;23.30;76.70
16301;DHT22;8258;51.020;4.248;2023-05-16T09:58:38;24.30;71.40
16301;DHT22;8258;51.020;4.248;2023-05-16T10:01:05;24.50;66.90
16301;DHT22;8258;51.020;4.248;2023-05-16T10:03:34;22.90;63.80
16301;DHT22;8258;51.020;4.248;2023-05-16T10:06:03;20.70;69.60
16301;DHT22;8258;51.020;4.248;2023-05-16T10:08:32;19.40;77.90
16301;DHT22;8258;51.020;4.248;2023-05-16T10:11:01;20.80;83.20
16301;DHT22;8258;51.020;4.248;2023-05-16T10:13:30;21.80;75.50
16301;DHT22;8258;51.020;4.248;2023-05-16T10:15:58;23.00;69.00
16301;DHT22;8258;51.020;4.248;2023-05-16T10:18:29;24.10;65.30
16301;DHT22;8258;51.020;4.248;2023-05-16T10:20:59;23.00;66.80
16301;DHT22;8258;51.020;4.248;2023-05-16T10:23:30;23.50;68.70
16301;DHT22;8258;51.020;4.248;2023-05-16T10:26:01;23.40;70.60
16301;DHT22;8258;51.020;4.248;2023-05-16T10:28:29;23.50;71.00
16301;DHT22;8258;51.020;4.248;2023-05-16T10:30:56;22.80;72.10
16301;DHT22;8258;51.020;4.248;2023-05-16T10:33:23;21.50;71.60
16301;DHT22;8258;51.020;4.248;2023-05-16T10:35:50;21.90;71.30
16301;DHT22;8258;51.020;4.248;2023-05-16T10:38:18;22.90;70.00
16301;DHT22;8258;51.020;4.248;2023-05-16T10:40:48;22.00;69.80
16301;DHT22;8258;51.020;4.248;2023-05-16T10:43:23;22.10;70.80
16301;DHT22;8258;51.020;4.248;2023-05-16T10:45:54;22.50;71.80
16301;DHT22;8258;51.020;4.248;2023-05-16T10:48:28;21.20;72.70
16301;DHT22;8258;51.020;4.248;2023-05-16T10:50:56;19.60;79.80
16301;DHT22;8258;51.020;4.248;2023-05-16T10:53:29;19.60;86.80
16301;DHT22;8258;51.020;4.248;2023-05-16T10:56:10;21.60;79.00
16301;DHT22;8258;51.020;4.248;2023-05-16T10:58:42;22.80;67.70
16301;DHT22;8258;51.020;4.248;2023-05-16T11:01:17;22.90;68.60
16301;DHT22;8258;51.020;4.248;2023-05-16T11:04:09;22.50;71.70
16301;DHT22;8258;51.020;4.248;2023-05-16T11:06:49;21.00;75.20
16301;DHT22;8258;51.020;4.248;2023-05-16T11:09:19;20.90;76.40
16301;DHT22;8258;51.020;4.248;2023-05-16T11:11:54;22.60;76.30
16301;DHT22;8258;51.020;4.248;2023-05-16T11:14:22;24.30;69.50
16301;DHT22;8258;51.020;4.248;2023-05-16T11:16:50;25.00;59.60
16301;DHT22;8258;51.020;4.248;2023-05-16T11:19:33;24.80;58.70
16301;DHT22;8258;51.020;4.248;2023-05-16T11:22:11;24.70;58.30
16301;DHT22;8258;51.020;4.248;2023-05-16T11:24:48;25.10;58.10
16301;DHT22;8258;51.020;4.248;2023-05-16T11:27:22;24.70;57.70
16301;DHT22;8258;51.020;4.248;2023-05-16T11:29:50;23.30;60.90
16301;DHT22;8258;51.020;4.248;2023-05-16T11:32:21;23.20;64.00
16301;DHT22;8258;51.020;4.248;2023-05-16T11:34:49;23.80;60.50
16301;DHT22;8258;51.020;4.248;2023-05-16T11:37:17;23.90;58.00
16301;DHT22;8258;51.020;4.248;2023-05-16T11:39:45;23.10;58.30
16301;DHT22;8258;51.020;4.248;2023-05-16T11:42:12;21.20;60.90
16301;DHT22;8258;51.020;4.248;2023-05-16T11:44:41;20.40;63.00
16301;DHT22;8258;51.020;4.248;2023-05-16T11:47:07;22.20;62.20
16301;DHT22;8258;51.020;4.248;2023-05-16T11:49:35;23.70;57.00
16301;DHT22;8258;51.020;4.248;2023-05-16T11:52:02;23.00;59.90
16301;DHT22;8258;51.020;4.248;2023-05-16T11:54:30;23.70;56.70
16301;DHT22;8258;51.020;4.248;2023-05-16T11:57:02;24.20;55.10
16301;DHT22;8258;51.020;4.248;2023-05-16T11:59:29;24.60;55.40
16301;DHT22;8258;51.020;4.248;2023-05-16T12:02:02;24.70;51.60
16301;DHT22;8258;51.020;4.248;2023-05-16T12:04:30;23.90;52.50
16301;DHT22;8258;51.020;4.248;2023-05-16T12:06:59;22.30;56.00
16301;DHT22;8258;51.020;4.248;2023-05-16T12:09:26;22.40;58.80
16301;DHT22;8258;51.020;4.248;2023-05-16T12:11:53;24.00;57.20
16301;DHT22;8258;51.020;4.248;2023-05-16T12:14:21;24.70;51.50
16301;DHT22;8258;51.020;4.248;2023-05-16T12:16:50;23.40;50.70
16301;DHT22;8258;51.020;4.248;2023-05-16T12:19:19;22.00;56.90
16301;DHT22;8258;51.020;4.248;2023-05-16T12:21:47;21.70;57.50
16301;DHT22;8258;51.020;4.248;2023-05-16T12:24:14;20.80;57.90
16301;DHT22;8258;51.020;4.248;2023-05-16T12:26:42;21.80;60.90
16301;DHT22;8258;51.020;4.248;2023-05-16T12:29:09;23.20;58.50
16301;DHT22;8258;51.020;4.248;2023-05-16T12:31:38;23.70;53.90
16301;DHT22;8258;51.020;4.248;2023-05-16T12:34:14;23.70;56.00
16301;DHT22;8258;51.020;4.248;2023-05-16T12:36:43;23.40;52.80
16301;DHT22;8258;51.020;4.248;2023-05-16T12:39:11;24.40;52.40
16301;DHT22;8258;51.020;4.248;2023-05-16T12:41:40;24.60;49.50
16301;DHT22;8258;51.020;4.248;2023-05-16T12:44:11;24.40;50.80
16301;DHT22;8258;51.020;4.248;2023-05-16T12:46:46;23.70;50.90
16301;DHT22;8258;51.020;4.248;2023-05-16T12:49:15;23.40;51.80
16301;DHT22;8258;51.020;4.248;2023-05-16T12:51:49;22.60;51.90
16301;DHT22;8258;51.020;4.248;2023-05-16T12:54:16;22.70;50.00
16301;DHT22;8258;51.020;4.248;2023-05-16T12:56:44;22.60;50.70
16301;DHT22;8258;51.020;4.248;2023-05-16T12:59:11;22.90;52.80
16301;DHT22;8258;51.020;4.248;2023-05-16T13:01:38;24.60;52.40
16301;DHT22;8258;51.020;4.248;2023-05-16T13:04:06;24.80;48.50
16301;DHT22;8258;51.020;4.248;2023-05-16T13:06:34;24.50;48.80
16301;DHT22;8258;51.020;4.248;2023-05-16T13:09:03;24.80;46.50
16301;DHT22;8258;51.020;4.248;2023-05-16T13:11:30;25.90;46.50
16301;DHT22;8258;51.020;4.248;2023-05-16T13:13:58;25.60;41.10
16301;DHT22;8258;51.020;4.248;2023-05-16T13:16:25;25.90;39.40
16301;DHT22;8258;51.020;4.248;2023-05-16T13:18:52;25.70;40.40
16301;DHT22;8258;51.020;4.248;2023-05-16T13:21:19;25.70;40.10
16301;DHT22;8258;51.020;4.248;2023-05-16T13:23:46;25.90;40.80
16301;DHT22;8258;51.020;4.248;2023-05-16T13:26:15;26.40;41.20
16301;DHT22;8258;51.020;4.248;2023-05-16T13:28:42;26.50;39.80
16301;DHT22;8258;51.020;4.248;2023-05-16T13:31:08;26.00;37.90
16301;DHT22;8258;51.020;4.248;2023-05-16T13:33:35;25.60;40.10
16301;DHT22;8258;51.020;4.248;2023-05-16T13:36:03;25.80;37.80
16301;DHT22;8258;51.020;4.248;2023-05-16T13:38:30;26.00;39.50
16301;DHT22;8258;51.020;4.248;2023-05-16T13:40:57;26.10;38.40
16301;DHT22;8258;51.020;4.248;2023-05-16T13:43:25;26.30;39.30
16301;DHT22;8258;51.020;4.248;2023-05-16T13:45:52;26.80;38.50
16301;DHT22;8258;51.020;4.248;2023-05-16T13:48:19;26.40;37.40
16301;DHT22;8258;51.020;4.248;2023-05-16T13:50:46;26.10;37.30
16301;DHT22;8258;51.020;4.248;2023-05-16T13:53:13;26.00;37.40
16301;DHT22;8258;51.020;4.248;2023-05-16T13:55:40;26.70;38.70
16301;DHT22;8258;51.020;4.248;2023-05-16T13:58:07;26.00;37.00
16301;DHT22;8258;51.020;4.248;2023-05-16T14:00:37;24.60;39.00
16301;DHT22;8258;51.020;4.248;2023-05-16T14:03:04;25.30;40.00
16301;DHT22;8258;51.020;4.248;2023-05-16T14:05:31;25.20;37.40
16301;DHT22;8258;51.020;4.248;2023-05-16T14:07:57;23.70;41.90
16301;DHT22;8258;51.020;4.248;2023-05-16T14:10:25;24.20;45.10
16301;DHT22;8258;51.020;4.248;2023-05-16T14:12:52;24.40;41.70
16301;DHT22;8258;51.020;4.248;2023-05-16T14:15:19;23.50;45.30
16301;DHT22;8258;51.020;4.248;2023-05-16T14:17:47;24.20;44.50
16301;DHT22;8258;51.020;4.248;2023-05-16T14:20:14;25.00;43.70
16301;DHT22;8258;51.020;4.248;2023-05-16T14:22:41;25.20;40.40
16301;DHT22;8258;51.020;4.248;2023-05-16T14:25:08;24.50;40.10
16301;DHT22;8258;51.020;4.248;2023-05-16T14:27:35;23.20;45.00
16301;DHT22;8258;51.020;4.248;2023-05-16T14:30:03;24.40;46.10
16301;DHT22;8258;51.020;4.248;2023-05-16T14:32:30;25.00;45.20
16301;DHT22;8258;51.020;4.248;2023-05-16T14:34:59;25.50;43.80
16301;DHT22;8258;51.020;4.248;2023-05-16T14:37:26;25.90;42.50
16301;DHT22;8258;51.020;4.248;2023-05-16T14:39:53;26.20;40.90
16301;DHT22;8258;51.020;4.248;2023-05-16T14:42:20;26.00;41.80
16301;DHT22;8258;51.020;4.248;2023-05-16T14:44:47;25.60;40.40
16301;DHT22;8258;51.020;4.248;2023-05-16T14:47:14;26.00;41.40
16301;DHT22;8258;51.020;4.248;2023-05-16T14:49:41;25.40;42.10
16301;DHT22;8258;51.020;4.248;2023-05-16T14:52:10;22.70;43.50
16301;DHT22;8258;51.020;4.248;2023-05-16T14:54:37;21.70;48.20
16301;DHT22;8258;51.020;4.248;2023-05-16T14:57:04;23.20;49.90
16301;DHT22;8258;51.020;4.248;2023-05-16T14:59:31;25.10;45.70
16301;DHT22;8258;51.020;4.248;2023-05-16T15:01:58;25.40;44.00
16301;DHT22;8258;51.020;4.248;2023-05-16T15:04:26;25.00;43.00
16301;DHT22;8258;51.020;4.248;2023-05-16T15:26:13;24.30;45.20
16301;DHT22;8258;51.020;4.248;2023-05-16T15:28:39;24.00;47.00
16301;DHT22;8258;51.020;4.248;2023-05-16T15:31:06;22.80;47.40
16301;DHT22;8258;51.020;4.248;2023-05-16T15:33:33;22.70;48.20
16301;DHT22;8258;51.020;4.248;2023-05-16T15:36:00;23.80;47.90
16301;DHT22;8258;51.020;4.248;2023-05-16T15:38:27;23.40;47.00
16301;DHT22;8258;51.020;4.248;2023-05-16T15:40:54;23.80;46.20
16301;DHT22;8258;51.020;4.248;2023-05-16T15:43:23;24.10;44.50
16301;DHT22;8258;51.020;4.248;2023-05-16T15:45:50;23.10;45.00
16301;DHT22;8258;51.020;4.248;2023-05-16T15:48:17;23.50;47.40
16301;DHT22;8258;51.020;4.248;2023-05-16T15:50:44;23.80;45.10
16301;DHT22;8258;51.020;4.248;2023-05-16T15:53:11;23.00;45.20
16301;DHT22;8258;51.020;4.248;2023-05-16T15:55:38;22.10;46.30
16301;DHT22;8258;51.020;4.248;2023-05-16T15:58:05;20.80;49.20
16301;DHT22;8258;51.020;4.248;2023-05-16T16:00:33;20.30;50.80
16301;DHT22;8258;51.020;4.248;2023-05-16T16:03:00;21.40;50.30
16301;DHT22;8258;51.020;4.248;2023-05-16T16:05:27;21.60;51.40
16301;DHT22;8258;51.020;4.248;2023-05-16T16:07:54;21.70;49.90
16301;DHT22;8258;51.020;4.248;2023-05-16T16:10:21;21.00;52.00
16301;DHT22;8258;51.020;4.248;2023-05-16T16:12:57;19.70;54.30
16301;DHT22;8258;51.020;4.248;2023-05-16T16:15:25;18.80;57.20
16301;DHT22;8258;51.020;4.248;2023-05-16T16:17:54;18.50;61.80
16301;DHT22;8258;51.020;4.248;2023-05-16T16:20:21;19.00;64.50
16301;DHT22;8258;51.020;4.248;2023-05-16T16:22:48;19.70;61.20
16301;DHT22;8258;51.020;4.248;2023-05-16T16:25:16;19.80;61.30
16301;DHT22;8258;51.020;4.248;2023-05-16T16:27:42;19.70;62.10
16301;DHT22;8258;51.020;4.248;2023-05-16T16:30:10;19.50;65.30
16301;DHT22;8258;51.020;4.248;2023-05-16T16:32:37;19.00;64.50
16301;DHT22;8258;51.020;4.248;2023-05-16T16:35:06;18.70;63.20
16301;DHT22;8258;51.020;4.248;2023-05-16T16:37:34;18.60;65.00
16301;DHT22;8258;51.020;4.248;2023-05-16T16:40:01;18.50;67.60
16301;DHT22;8258;51.020;4.248;2023-05-16T16:42:29;18.50;67.40
16301;DHT22;8258;51.020;4.248;2023-05-16T16:44:56;18.40;65.40
16301;DHT22;8258;51.020;4.248;2023-05-16T16:47:23;18.30;69.20
16301;DHT22;8258;51.020;4.248;2023-05-16T16:49:50;18.40;68.80
16301;DHT22;8258;51.020;4.248;2023-05-16T16:52:18;18.20;68.80
16301;DHT22;8258;51.020;4.248;2023-05-16T16:54:45;17.90;70.50
16301;DHT22;8258;51.020;4.248;2023-05-16T16:57:12;17.70;73.80
16301;DHT22;8258;51.020;4.248;2023-05-16T16:59:39;17.80;79.10
16301;DHT22;8258;51.020;4.248;2023-05-16T17:02:06;17.90;80.30
16301;DHT22;8258;51.020;4.248;2023-05-16T17:04:33;17.90;81.30
16301;DHT22;8258;51.020;4.248;2023-05-16T17:07:01;18.10;79.70
16301;DHT22;8258;51.020;4.248;2023-05-16T17:09:29;18.20;81.00